Time;durP1;ratioP1;P1;durP2;ratioP2;P2;SDS_P1;SDS_P2;PMS_P1;PMS_P2;Temp;Humidity;BMP_temperature;BMP_pressure;BME280_temperature;BME280_humidity;BME280_pressure;Samples;Min_cycle;Max_cycle;Signal;HPM_P1;HPM_P2
2021/04/11 00:00:40;;;;;;;49.35;31.80;;;;;;;10.41;59.84;100851.38;1731951;80;28430;-76
2021/04/11 00:03:14;;;;;;;47.13;31.65;;;;;;;10.36;60.02;100847.05;1770352;79;25841;-75
2021/04/11 00:05:43;;;;;;;48.02;30.08;;;;;;;10.33;60.45;100847.44;1763877;80;26179;-76
2021/04/11 00:08:13;;;;;;;42.27;29.67;;;;;;;10.26;60.69;100855.34;1800026;78;26180;-76
2021/04/11 00:10:45;;;;;;;46.30;30.77;;;;;;;10.22;60.91;100858.05;1764876;78;26522;-76
2021/04/11 00:13:18;;;;;;;45.55;29.70;;;;;;;10.16;61.27;100857.40;1744742;78;27527;-76
2021/04/11 00:15:45;;;;;;;46.18;31.40;;;;;;;10.11;61.58;100857.62;1791208;78;26295;-76
2021/04/11 00:18:13;;;;;;;47.60;30.68;;;;;;;10.03;61.82;100850.42;1789354;79;25680;-76
2021/04/11 00:20:40;;;;;;;48.73;32.65;;;;;;;10.00;61.99;100848.13;1724944;78;26451;-76
2021/04/11 00:23:08;;;;;;;50.03;33.02;;;;;;;9.95;62.05;100843.80;1772947;79;25728;-76
2021/04/11 00:25:39;;;;;;;52.85;31.80;;;;;;;9.90;62.03;100843.52;1764450;80;27353;-76
2021/04/11 00:28:13;;;;;;;54.75;33.25;;;;;;;9.88;62.04;100841.52;1793244;78;26434;-76
2021/04/11 00:30:41;;;;;;;54.53;33.60;;;;;;;9.84;62.16;100841.02;1753211;78;25750;-76
2021/04/11 00:33:25;;;;;;;49.45;33.23;;;;;;;9.83;62.15;100837.19;1782335;78;25707;-75
2021/04/11 00:36:03;;;;;;;49.70;32.58;;;;;;;9.80;62.31;100838.86;1793968;79;25803;-76
2021/04/11 00:38:31;;;;;;;48.52;32.85;;;;;;;9.78;62.37;100836.38;1794420;78;28254;-76
2021/04/11 00:41:12;;;;;;;50.83;33.38;;;;;;;9.73;62.33;100836.58;1730482;78;26629;-76
2021/04/11 00:43:39;;;;;;;45.45;31.10;;;;;;;9.64;62.45;100831.78;1782576;79;25848;-76
2021/04/11 00:46:29;;;;;;;50.48;31.87;;;;;;;9.55;62.54;100830.14;1790837;79;26184;-76
2021/04/11 00:48:57;;;;;;;53.23;31.25;;;;;;;9.46;62.70;100836.53;1797036;78;25849;-76
2021/04/11 00:51:27;;;;;;;54.33;33.15;;;;;;;9.46;62.88;100845.89;1755911;80;27547;-76
2021/04/11 00:54:02;;;;;;;51.70;32.33;;;;;;;9.47;62.89;100840.89;1776256;80;26261;-75
2021/04/11 00:56:34;;;;;;;47.20;30.08;;;;;;;9.52;62.93;100834.99;1761676;80;25906;-75
2021/04/11 00:59:02;;;;;;;54.40;32.08;;;;;;;9.51;62.92;100832.00;1720871;81;25915;-76
2021/04/11 01:01:30;;;;;;;47.67;29.85;;;;;;;9.52;62.97;100834.99;1668867;81;25763;-75
2021/04/11 01:03:59;;;;;;;41.50;27.95;;;;;;;9.51;63.15;100844.03;1707210;82;28520;-76
2021/04/11 01:06:31;;;;;;;44.77;28.95;;;;;;;9.49;63.14;100846.05;1719086;82;25845;-75
2021/04/11 01:08:59;;;;;;;48.85;29.77;;;;;;;9.49;63.22;100847.39;1741258;81;25778;-76
2021/04/11 01:11:33;;;;;;;45.63;30.37;;;;;;;9.48;63.32;100845.21;1681294;81;26122;-75
2021/04/11 01:14:05;;;;;;;51.20;31.68;;;;;;;9.46;63.30;100845.89;1721410;81;26386;-76
2021/04/11 01:16:34;;;;;;;48.58;31.20;;;;;;;9.46;63.49;100849.06;1729243;81;27426;-76
2021/04/11 01:19:05;;;;;;;48.25;32.93;;;;;;;9.43;63.47;100845.41;1739912;81;25980;-76
2021/04/11 01:22:01;;;;;;;49.45;31.82;;;;;;;9.41;63.57;100847.43;1704451;81;25833;-75
2021/04/11 01:24:42;;;;;;;51.88;32.50;;;;;;;9.40;63.65;100847.09;1704741;82;26476;-75
2021/04/11 01:27:15;;;;;;;51.25;32.90;;;;;;;9.36;63.61;100849.77;1723092;81;25906;-76
2021/04/11 01:29:44;;;;;;;53.70;33.95;;;;;;;9.35;63.79;100847.59;1742538;81;27536;-76
2021/04/11 01:32:15;;;;;;;52.27;32.70;;;;;;;9.34;63.86;100838.73;1743881;81;25637;-76
2021/04/11 01:34:43;;;;;;;54.93;33.05;;;;;;;9.30;63.79;100837.95;1737716;81;25810;-76
2021/04/11 01:37:15;;;;;;;47.75;31.20;;;;;;;9.27;63.78;100843.63;1721293;81;25954;-76
2021/04/11 01:39:45;;;;;;;48.40;32.28;;;;;;;9.24;63.80;100843.95;1740898;81;25917;-76
2021/04/11 01:42:15;;;;;;;52.55;32.85;;;;;;;9.21;63.92;100842.98;1706083;81;28501;-76
2021/04/11 01:44:47;;;;;;;50.00;32.67;;;;;;;9.16;64.05;100842.16;1737607;81;27349;-76
2021/04/11 01:47:16;;;;;;;51.98;32.93;;;;;;;9.15;64.08;100833.80;1719543;81;26516;-76
2021/04/11 01:49:44;;;;;;;45.73;31.27;;;;;;;9.14;64.14;100846.00;1740879;81;25719;-76
2021/04/11 01:52:26;;;;;;;47.05;31.17;;;;;;;9.08;64.12;100846.20;1714558;82;25880;-76
2021/04/11 01:54:54;;;;;;;46.42;31.23;;;;;;;9.07;64.08;100841.00;1745515;81;27584;-75
2021/04/11 01:57:30;;;;;;;51.90;32.53;;;;;;;9.04;64.22;100842.70;1740951;81;25889;-75
2021/04/11 02:00:42;;;;;;;50.28;32.63;;;;;;;9.01;64.32;100842.53;1744800;81;25795;-76
2021/04/11 02:03:16;;;;;;;52.38;31.77;;;;;;;8.98;64.45;100839.38;1749467;81;25833;-76
2021/04/11 02:05:47;;;;;;;50.35;33.10;;;;;;;8.93;64.56;100843.05;1724807;82;25872;-75
2021/04/11 02:08:20;;;;;;;48.98;32.08;;;;;;;8.89;64.57;100835.05;1744774;81;28340;-76
2021/04/11 02:10:52;;;;;;;55.60;34.67;;;;;;;8.86;64.73;100830.88;1722939;82;25791;-76
2021/04/11 02:13:32;;;;;;;63.52;36.83;;;;;;;8.84;64.95;100826.20;1722156;81;25801;-76
2021/04/11 02:16:03;;;;;;;56.08;32.80;;;;;;;8.82;64.89;100824.70;1723584;81;25620;-76
2021/04/11 02:18:34;;;;;;;;;;;;;;;8.77;64.94;100827.07;1716539;82;25814;-75
2021/04/11 02:21:08;;;;;;;53.30;34.53;;;;;;;8.70;64.96;100826.91;1720027;81;28322;-75
2021/04/11 02:23:37;;;;;;;58.38;34.92;;;;;;;8.61;65.00;100821.23;1736679;81;25847;-76
2021/04/11 02:26:08;;;;;;;49.83;30.77;;;;;;;8.55;65.09;100815.24;1735634;81;26187;-76
2021/04/11 02:28:37;;;;;;;50.80;33.65;;;;;;;8.52;65.28;100813.73;1741862;81;25834;-76
2021/04/11 02:31:18;;;;;;;46.35;30.72;;;;;;;8.47;65.23;100803.21;1738969;81;25806;-75
2021/04/11 02:33:55;;;;;;;48.73;29.55;;;;;;;8.43;65.35;100804.06;1725271;81;27531;-75
2021/04/11 02:36:26;;;;;;;50.50;31.05;;;;;;;8.36;65.45;100804.91;1716855;81;26506;-75
2021/04/11 02:38:57;;;;;;;43.70;27.53;;;;;;;8.30;65.68;100803.73;1718790;81;26336;-76
2021/04/11 02:41:27;;;;;;;41.65;25.92;;;;;;;8.26;65.84;100798.89;1720658;81;26462;-75
2021/04/11 02:43:56;;;;;;;37.55;25.48;;;;;;;8.22;65.90;100798.36;1742298;81;25795;-76
2021/04/11 02:46:24;;;;;;;39.60;25.30;;;;;;;8.14;66.02;100798.37;1731353;81;27338;-75
2021/04/11 02:48:54;;;;;;;35.25;24.92;;;;;;;8.02;66.11;100787.67;1705764;81;26454;-75
2021/04/11 02:51:27;;;;;;;38.08;23.90;;;;;;;7.95;66.34;100782.69;1723843;81;25898;-75
2021/04/11 02:53:58;;;;;;;39.65;25.32;;;;;;;7.91;66.48;100790.69;1716826;81;25733;-76
2021/04/11 02:56:28;;;;;;;40.63;24.37;;;;;;;7.86;66.28;100798.34;1720996;81;26280;-75
2021/04/11 02:58:57;;;;;;;35.92;24.35;;;;;;;7.82;66.19;100792.16;1706213;81;27550;-76
2021/04/11 03:01:35;;;;;;;35.98;23.85;;;;;;;7.78;66.19;100797.80;1721046;81;25968;-75
2021/04/11 03:04:04;;;;;;;42.65;24.95;;;;;;;7.76;66.12;100800.33;1708409;81;25822;-76
2021/04/11 03:06:38;;;;;;;40.85;26.07;;;;;;;7.69;66.16;100802.81;1715210;82;25892;-75
2021/04/11 03:09:11;;;;;;;41.45;26.33;;;;;;;7.68;66.37;100809.62;1740236;81;25837;-76
2021/04/11 03:11:44;;;;;;;43.75;28.27;;;;;;;7.69;66.64;100801.97;1714992;81;28520;-76
2021/04/11 03:14:15;;;;;;;47.55;29.32;;;;;;;7.69;66.66;100801.97;1719201;82;26090;-75
2021/04/11 03:16:45;;;;;;;44.85;29.50;;;;;;;7.64;66.70;100810.45;1742527;81;25868;-76
2021/04/11 03:19:18;;;;;;;44.15;28.92;;;;;;;7.60;66.91;100806.94;1699072;81;25826;-75
2021/04/11 03:21:46;;;;;;;45.08;30.12;;;;;;;7.61;67.15;100809.95;1724224;81;25904;-75
2021/04/11 03:24:14;;;;;;;48.15;29.52;;;;;;;7.62;67.16;100809.78;1712644;81;28488;-76
2021/04/11 03:27:18;;;;;;;50.98;31.42;;;;;;;7.62;67.22;100808.45;1691883;81;25740;-75
2021/04/11 03:30:04;;;;;;;49.13;31.62;;;;;;;7.64;67.21;100810.45;1738822;81;25741;-76
2021/04/11 03:32:46;;;;;;;50.88;31.40;;;;;;;7.63;67.36;100815.43;1738557;81;25858;-76
2021/04/11 03:35:16;;;;;;;;;;;;;;;7.63;67.48;100819.95;1712833;81;26478;-76
2021/04/11 03:37:47;;;;;;;49.48;32.25;;;;;;;7.62;67.67;100819.60;1739677;81;28425;-76
2021/04/11 03:40:19;;;;;;;54.30;33.48;;;;;;;7.60;67.66;100821.11;1702249;82;25955;-75
2021/04/11 03:42:50;;;;;;;56.23;35.03;;;;;;;7.58;67.64;100827.59;1687561;82;26162;-76
2021/04/11 03:45:19;;;;;;;55.98;34.15;;;;;;;7.55;67.79;100828.74;1739359;81;26971;-76
2021/04/11 03:48:07;;;;;;;57.00;33.75;;;;;;;7.51;67.75;100828.73;1729230;81;26146;-76
2021/04/11 03:50:39;;;;;;;55.73;35.08;;;;;;;7.50;67.85;100835.08;1730216;82;28528;-76
2021/04/11 03:53:31;;;;;;;59.77;34.88;;;;;;;7.52;67.87;100829.09;1824620;77;25524;-75
2021/04/11 03:56:05;;;;;;;48.63;32.48;;;;;;;7.44;67.95;100837.03;1794280;78;25887;-76
2021/04/11 03:58:45;;;;;;;50.75;32.20;;;;;;;7.44;67.97;100840.22;1790314;79;27610;-76
2021/04/11 04:01:26;;;;;;;57.45;34.25;;;;;;;7.45;67.97;100832.05;1829445;77;25764;-76
2021/04/11 04:04:02;;;;;;;54.85;33.58;;;;;;;7.39;68.03;100838.52;1790921;79;25718;-75
2021/04/11 04:06:35;;;;;;;57.10;35.17;;;;;;;7.37;67.99;100832.02;1793059;78;29080;-75
2021/04/11 04:09:05;;;;;;;63.23;33.58;;;;;;;7.35;67.99;100835.84;1770264;78;26095;-75
2021/04/11 04:11:49;;;;;;;55.23;33.65;;;;;;;7.34;67.97;100839.48;1792871;79;25790;-75
2021/04/11 04:14:24;;;;;;;51.73;34.15;;;;;;;7.33;68.13;100834.67;1736529;81;25869;-76
2021/04/11 04:17:09;;;;;;;61.45;34.33;;;;;;;7.33;68.08;100838.67;1738624;81;25838;-75
2021/04/11 04:20:11;;;;;;;49.40;33.42;;;;;;;7.39;68.08;100835.86;1830583;77;25783;-76
2021/04/11 04:23:18;;;;;;;53.80;33.85;;;;;;;7.35;68.23;100838.50;1794056;78;26279;-75
2021/04/11 04:26:17;;;;;;;52.23;33.73;;;;;;;7.37;68.36;100836.52;1768129;80;28214;-75
2021/04/11 04:29:12;;;;;;;51.30;34.08;;;;;;;7.36;68.33;100840.16;1733885;81;25796;-76
2021/04/11 04:32:05;;;;;;;56.48;35.03;;;;;;;7.35;68.41;100838.50;1745436;80;25826;-75
2021/04/11 04:34:57;;;;;;;60.60;35.65;;;;;;;7.35;68.47;100839.34;1763638;80;25727;-76
2021/04/11 04:37:47;;;;;;;58.35;36.53;;;;;;;7.35;68.82;100844.67;1758878;80;26447;-75
2021/04/11 04:40:45;;;;;;;53.65;36.40;;;;;;;7.36;68.91;100848.99;1764853;80;28451;-75
2021/04/11 04:43:42;;;;;;;59.38;38.33;;;;;;;7.38;69.00;100851.48;1744347;80;26145;-75
2021/04/11 04:46:35;;;;;;;57.88;37.98;;;;;;;7.42;69.03;100847.54;1732868;81;25717;-76
2021/04/11 04:49:20;;;;;;;60.40;36.85;;;;;;;7.44;69.09;100853.54;1766614;80;26120;-75
2021/04/11 04:52:10;;;;;;;60.78;38.58;;;;;;;7.47;69.11;100852.71;1733772;80;26269;-76
2021/04/11 04:54:59;;;;;;;69.30;41.35;;;;;;;7.50;69.28;100851.07;1767594;80;27531;-75
2021/04/11 04:57:33;;;;;;;69.27;40.20;;;;;;;7.52;69.46;100851.74;1769363;80;25883;-75
2021/04/11 05:00:24;;;;;;;64.82;39.23;;;;;;;7.54;69.68;100860.91;1725303;80;25579;-75
2021/04/11 05:03:19;;;;;;;60.55;37.15;;;;;;;7.57;69.70;100857.92;1716250;82;26328;-75
2021/04/11 05:06:09;;;;;;;67.00;43.05;;;;;;;7.61;69.62;100857.94;1674161;84;25947;-75
2021/04/11 05:08:46;;;;;;;69.82;42.30;;;;;;;7.64;69.80;100857.59;1704352;82;27631;-76
2021/04/11 05:11:24;;;;;;;68.70;43.28;;;;;;;7.67;70.03;100855.95;1712762;82;26185;-76
2021/04/11 05:14:03;;;;;;;67.47;41.75;;;;;;;7.74;70.10;100859.66;1717937;82;25785;-75
2021/04/11 05:16:54;;;;;;;75.45;45.67;;;;;;;7.80;70.16;100857.66;1703465;82;26369;-76
2021/04/11 05:19:38;;;;;;;81.53;49.35;;;;;;;7.87;70.28;100864.52;1712466;82;25853;-76
2021/04/11 05:22:25;;;;;;;81.00;48.60;;;;;;;7.98;70.41;100860.19;1694490;82;28212;-75
2021/04/11 05:25:16;;;;;;;75.40;48.80;;;;;;;8.08;70.54;100863.56;1687593;83;25678;-76
2021/04/11 05:28:03;;;;;;;83.30;49.77;;;;;;;8.16;70.57;100861.74;1698432;83;26201;-76
2021/04/11 05:30:39;;;;;;;80.67;48.87;;;;;;;8.26;70.43;100864.27;1713071;83;26111;-75
2021/04/11 05:33:11;;;;;;;77.87;49.58;;;;;;;8.34;70.30;100866.97;1721576;81;26468;-76
2021/04/11 05:35:38;;;;;;;80.55;51.55;;;;;;;8.42;70.34;100853.13;1666351;84;27632;-76
2021/04/11 05:38:35;;;;;;;79.97;49.27;;;;;;;8.50;70.16;100855.79;1707564;82;25813;-75
2021/04/11 05:41:17;;;;;;;74.40;47.75;;;;;;;8.58;70.16;100861.61;1717968;82;25941;-75
2021/04/11 05:44:05;;;;;;;82.62;51.10;;;;;;;8.66;70.08;100858.93;1711372;82;25696;-76
2021/04/11 05:46:37;;;;;;;80.05;50.95;;;;;;;8.75;69.83;100857.09;1693271;82;25947;-75
2021/04/11 05:49:12;;;;;;;82.47;50.65;;;;;;;8.82;69.73;100868.77;1714224;82;27276;-76
2021/04/11 05:51:53;;;;;;;87.00;50.55;;;;;;;8.90;69.75;100856.73;1706831;83;26419;-75
2021/04/11 05:54:36;;;;;;;;;;;;;;;8.98;69.82;100855.41;1688905;83;25922;-76
2021/04/11 05:57:14;;;;;;;75.20;46.73;;;;;;;9.06;69.86;100855.38;1697745;82;26110;-76
2021/04/11 05:59:53;;;;;;;79.92;50.75;;;;;;;9.13;69.73;100854.52;1695091;82;25778;-76
2021/04/11 06:02:48;;;;;;;76.02;49.00;;;;;;;9.25;69.67;100849.16;1691115;82;27538;-75
2021/04/11 06:05:33;;;;;;;74.22;47.60;;;;;;;9.37;69.38;100857.61;1716566;82;25954;-76
2021/04/11 06:08:13;;;;;;;76.40;47.23;;;;;;;9.45;68.91;100854.09;1689337;82;26482;-74
2021/04/11 06:10:52;;;;;;;73.78;47.33;;;;;;;9.55;68.92;100854.22;1657277;84;26291;-75
2021/04/11 06:13:39;;;;;;;74.65;48.33;;;;;;;9.71;68.93;100855.99;1689442;82;25863;-76
2021/04/11 06:16:14;;;;;;;73.97;46.08;;;;;;;9.84;68.55;100843.69;1735704;81;27553;-75
2021/04/11 06:18:46;;;;;;;70.85;47.50;;;;;;;9.99;68.29;100849.95;1713415;82;26697;-75
2021/04/11 06:21:57;;;;;;;78.47;48.42;;;;;;;10.09;68.08;100852.42;1723749;82;25750;-75
2021/04/11 06:24:50;;;;;;;77.53;45.08;;;;;;;10.24;68.00;100852.02;1734940;81;25759;-75
2021/04/11 06:27:59;;;;;;;77.78;47.90;;;;;;;10.35;67.71;100846.22;1735132;81;25850;-75
2021/04/11 06:30:46;;;;;;;73.07;46.63;;;;;;;10.46;67.87;100838.27;1733848;81;27531;-75
2021/04/11 06:33:37;;;;;;;69.25;44.77;;;;;;;10.60;67.63;100834.81;1703389;81;26193;-75
2021/04/11 06:36:22;;;;;;;73.80;44.75;;;;;;;10.74;67.36;100836.17;1706370;82;25729;-75
2021/04/11 06:39:06;;;;;;;77.08;45.17;;;;;;;10.87;66.76;100832.87;1731311;81;25797;-74
2021/04/11 06:41:51;;;;;;;66.25;45.60;;;;;;;10.98;66.56;100823.55;1719206;81;25807;-74
2021/04/11 06:44:48;;;;;;;68.80;43.30;;;;;;;11.13;66.68;100824.38;1730364;81;27356;-75
2021/04/11 06:48:00;;;;;;;77.12;48.68;;;;;;;11.24;66.41;100819.91;1731236;81;26095;-75
2021/04/11 06:51:11;;;;;;;73.05;45.05;;;;;;;11.36;66.58;100819.75;1728052;81;25738;-76
2021/04/11 06:54:05;;;;;;;69.53;43.55;;;;;;;11.48;66.04;100824.98;1709947;81;25790;-75
2021/04/11 06:57:09;;;;;;;71.82;43.75;;;;;;;11.61;65.97;100818.44;1709053;81;25901;-75
2021/04/11 06:59:57;;;;;;;68.10;41.65;;;;;;;11.74;65.43;100819.14;1719806;81;27537;-75
2021/04/11 07:02:53;;;;;;;63.95;40.80;;;;;;;11.87;65.49;100826.81;1731918;81;25777;-75
2021/04/11 07:05:40;;;;;;;61.50;38.83;;;;;;;12.00;65.23;100821.59;1696275;81;25860;-75
2021/04/11 07:08:52;;;;;;;71.05;42.58;;;;;;;12.12;64.68;100813.37;1716166;82;25767;-75
2021/04/11 07:11:52;;;;;;;65.47;41.13;;;;;;;12.22;64.57;100813.88;1730120;81;26196;-75
2021/04/11 07:14:44;;;;;;;89.45;50.35;;;;;;;12.34;63.97;100812.83;1701170;82;27543;-75
2021/04/11 07:17:42;;;;;;;72.10;45.03;;;;;;;12.45;63.95;100816.34;1721378;82;26022;-76
2021/04/11 07:20:47;;;;;;;69.05;40.65;;;;;;;12.54;63.52;100813.84;1710484;82;25847;-76
2021/04/11 07:23:53;;;;;;;66.55;39.20;;;;;;;12.63;63.34;100816.72;1715661;82;26553;-76
2021/04/11 07:26:44;;;;;;;57.93;37.00;;;;;;;12.76;63.43;100814.64;1717050;83;26728;-76
2021/04/11 07:29:33;;;;;;;59.77;36.90;;;;;;;12.91;62.69;100818.06;1686233;83;28466;-76
2021/04/11 07:32:24;;;;;;;56.77;35.52;;;;;;;13.03;62.42;100815.97;1697065;83;26401;-76
2021/04/11 07:35:20;;;;;;;55.43;36.98;;;;;;;13.13;61.72;100817.81;1697431;83;26097;-76
2021/04/11 07:40:36;;;;;;;56.92;37.48;;;;;;;13.41;61.97;100809.68;1833873;77;25802;-76
2021/04/11 07:43:44;;;;;;;56.00;35.65;;;;;;;13.49;61.90;100810.04;1794637;78;25727;-76
2021/04/11 07:46:47;;;;;;;52.55;33.83;;;;;;;13.62;62.12;100810.10;1780221;79;27505;-76
2021/04/11 07:49:24;;;;;;;54.38;32.40;;;;;;;13.73;61.39;100804.95;1764142;79;25879;-76
2021/04/11 07:52:12;;;;;;;52.33;32.03;;;;;;;13.87;60.60;100808.52;1760906;79;25872;-76
2021/04/11 07:55:19;;;;;;;47.98;29.95;;;;;;;13.97;60.86;100809.46;1779934;79;25901;-76
2021/04/11 07:58:08;;;;;;;50.85;29.30;;;;;;;14.11;60.82;100807.13;1761113;79;25720;-75
2021/04/11 08:01:11;;;;;;;41.58;26.97;;;;;;;14.19;59.64;100801.54;1768277;79;28166;-76
2021/04/11 08:04:16;;;;;;;43.00;28.00;;;;;;;14.27;59.47;100807.56;1802396;79;25940;-76
2021/04/11 08:07:20;;;;;;;43.75;27.27;;;;;;;14.36;59.54;100797.45;1777770;79;25664;-76
2021/04/11 08:10:30;;;;;;;45.65;26.68;;;;;;;14.59;59.28;100794.66;1795238;77;25827;-76
2021/04/11 08:13:30;;;;;;;40.12;24.12;;;;;;;14.62;58.67;100798.30;1769098;79;25833;-76
2021/04/11 08:16:24;;;;;;;44.18;25.75;;;;;;;14.72;58.34;100790.28;1741885;79;28447;-76
2021/04/11 08:19:23;;;;;;;37.10;23.92;;;;;;;14.78;57.65;100790.27;1736089;79;25909;-76
2021/04/11 08:22:13;;;;;;;44.03;28.27;;;;;;;14.90;57.49;100780.53;1814168;77;28444;-76
2021/04/11 08:24:49;;;;;;;36.95;22.98;;;;;;;15.10;56.69;100777.24;1798329;78;26416;-76
2021/04/11 08:28:06;;;;;;;39.95;23.77;;;;;;;15.12;57.08;100783.25;1772006;79;27520;-76
2021/04/11 08:30:39;;;;;;;39.03;21.40;;;;;;;15.20;56.82;100778.17;1775420;80;26449;-76
2021/04/11 08:33:40;;;;;;;35.78;22.13;;;;;;;15.24;55.59;100776.19;1757777;78;25971;-76
2021/04/11 08:36:33;;;;;;;29.30;20.02;;;;;;;15.31;56.03;100774.81;1804593;78;25879;-76
2021/04/11 08:39:27;;;;;;;31.33;19.60;;;;;;;15.38;55.32;100778.30;1733939;78;26103;-76
2021/04/11 08:42:26;;;;;;;30.92;18.07;;;;;;;15.47;55.26;100777.56;1802835;78;27783;-76
2021/04/11 08:45:41;;;;;;;30.00;18.92;;;;;;;15.59;54.64;100770.47;1766690;78;26045;-76
2021/04/11 08:48:44;;;;;;;30.57;18.95;;;;;;;15.69;54.82;100773.02;1799325;78;26516;-76
2021/04/11 08:51:45;;;;;;;30.20;16.90;;;;;;;15.84;54.78;100769.50;1749088;78;25841;-76
2021/04/11 08:54:41;;;;;;;26.30;16.20;;;;;;;15.95;54.70;100763.93;1736352;80;25833;-76
2021/04/11 08:57:44;;;;;;;23.20;14.65;;;;;;;16.09;53.98;100760.08;1742414;81;27285;-76
2021/04/11 09:00:38;;;;;;;24.05;13.28;;;;;;;16.25;52.60;100756.03;1747258;81;25753;-77
2021/04/11 09:03:34;;;;;;;24.80;14.15;;;;;;;16.40;52.39;100752.47;1716662;81;25904;-77
2021/04/11 09:06:36;;;;;;;23.87;14.43;;;;;;;16.55;52.36;100751.65;1728337;81;25779;-76
2021/04/11 09:09:27;;;;;;;22.70;13.88;;;;;;;16.70;51.18;100739.96;1722017;81;25731;-76
2021/04/11 09:12:16;;;;;;;19.45;12.00;;;;;;;16.80;50.18;100737.05;1751713;81;29082;-77
2021/04/11 09:15:07;;;;;;;19.65;12.15;;;;;;;16.92;49.99;100723.06;1726020;81;25848;-77
2021/04/11 09:17:52;;;;;;;20.50;11.40;;;;;;;17.06;49.11;100726.98;1753163;81;25897;-76
2021/04/11 09:20:34;;;;;;;24.87;11.68;;;;;;;17.21;48.44;100717.95;1730490;82;26070;-76
2021/04/11 09:23:39;;;;;;;20.27;12.45;;;;;;;17.35;48.79;100721.61;1719529;82;26204;-77
2021/04/11 09:26:51;;;;;;;22.42;13.70;;;;;;;17.49;48.83;100714.95;1733377;80;27551;-76
2021/04/11 09:29:33;;;;;;;25.90;13.95;;;;;;;17.62;48.00;100710.75;1736210;81;25631;-77
2021/04/11 09:32:05;;;;;;;31.52;13.28;;;;;;;17.73;47.23;100695.59;1760544;80;26219;-76
2021/04/11 09:34:44;;;;;;;23.00;13.38;;;;;;;17.81;46.41;100695.28;1759116;80;25696;-76
2021/04/11 09:37:43;;;;;;;21.17;12.73;;;;;;;17.86;47.19;100693.20;1742397;81;25819;-76
2021/04/11 09:40:35;;;;;;;19.48;12.35;;;;;;;17.93;46.23;100687.16;1744854;80;28517;-75
2021/04/11 09:43:25;;;;;;;19.52;11.55;;;;;;;17.99;46.54;100686.23;1737738;81;25390;-76
2021/04/11 09:46:12;;;;;;;20.70;11.65;;;;;;;18.06;45.91;100685.60;1757805;81;26437;-75
2021/04/11 09:49:04;;;;;;;19.07;10.93;;;;;;;18.14;44.59;100682.02;1737364;81;25798;-76
2021/04/11 09:52:04;;;;;;;18.07;10.98;;;;;;;18.17;45.61;100687.52;1761027;80;25769;-76
2021/04/11 09:54:42;;;;;;;18.75;10.38;;;;;;;18.23;44.89;100673.84;1690006;80;27388;-76
2021/04/11 09:57:41;;;;;;;15.35;8.90;;;;;;;18.30;44.34;100674.56;1758379;80;25724;-75
2021/04/11 10:00:43;;;;;;;14.75;7.53;;;;;;;18.34;44.19;100673.55;1709406;81;25759;-75
2021/04/11 10:03:43;;;;;;;13.83;6.57;;;;;;;18.37;42.75;100672.54;1738309;80;26163;-76
2021/04/11 10:06:47;;;;;;;9.00;4.87;;;;;;;18.41;43.04;100674.27;1757578;80;26127;-75
2021/04/11 10:09:46;;;;;;;9.30;4.78;;;;;;;18.46;41.36;100668.45;1760350;80;27535;-76
2021/04/11 10:12:48;;;;;;;13.90;5.30;;;;;;;18.50;41.42;100662.02;1735126;80;26724;-76
2021/04/11 10:15:32;;;;;;;9.38;4.75;;;;;;;18.57;41.13;100666.80;1714420;81;25887;-76
2021/04/11 10:18:41;;;;;;;8.85;4.47;;;;;;;18.61;39.67;100670.68;1734553;80;25891;-76
2021/04/11 10:21:47;;;;;;;8.98;4.03;;;;;;;18.70;40.55;100663.00;1779131;79;26577;-76
2021/04/11 10:24:45;;;;;;;6.47;3.87;;;;;;;18.75;39.74;100661.77;1758117;79;27512;-76
2021/04/11 10:27:55;;;;;;;6.33;3.60;;;;;;;18.77;40.07;100661.00;1746141;80;25891;-76
2021/04/11 10:30:24;;;;;;;9.23;3.90;;;;;;;18.82;39.40;100655.69;1743686;79;25749;-76
2021/04/11 10:33:09;;;;;;;8.78;3.80;;;;;;;18.86;39.66;100648.71;1774534;79;25819;-76
2021/04/11 10:36:00;;;;;;;7.30;3.08;;;;;;;18.93;39.57;100650.73;1754906;79;26403;-76
2021/04/11 10:38:41;;;;;;;5.70;3.33;;;;;;;19.01;38.64;100650.39;1717231;82;27504;-76
2021/04/11 10:41:33;;;;;;;8.80;3.65;;;;;;;19.05;39.75;100643.41;1708436;81;25968;-76
2021/04/11 10:44:44;;;;;;;5.65;3.17;;;;;;;19.05;38.17;100645.56;1731979;81;25743;-76
2021/04/11 10:47:59;;;;;;;9.78;3.20;;;;;;;19.07;38.24;100645.34;1701631;82;34918;-76
2021/04/11 10:50:53;;;;;;;4.62;2.77;;;;;;;19.11;37.72;100637.01;1729817;82;26469;-76
2021/04/11 10:53:48;;;;;;;4.33;2.95;;;;;;;19.18;38.33;100637.70;1702193;82;27345;-76
2021/04/11 10:56:29;;;;;;;4.58;2.90;;;;;;;19.25;39.11;100633.76;1730223;82;26082;-77
2021/04/11 10:59:51;;;;;;;6.75;2.80;;;;;;;19.29;37.81;100634.09;1703120;82;26562;-76
2021/04/11 11:02:57;;;;;;;4.37;2.52;;;;;;;19.32;36.20;100635.50;1730091;82;26327;-76
2021/04/11 11:05:52;;;;;;;8.68;2.77;;;;;;;19.36;35.35;100627.19;1706927;82;25798;-75
2021/04/11 11:08:58;;;;;;;5.22;2.90;;;;;;;19.34;34.10;100633.36;1724479;81;27700;-75
2021/04/11 11:11:51;;;;;;;7.83;2.52;;;;;;;19.37;36.09;100628.32;1690535;82;26135;-76
2021/04/11 11:14:38;;;;;;;8.00;3.15;;;;;;;19.45;37.56;100635.23;1709882;82;25803;-75
2021/04/11 11:17:26;;;;;;;4.53;2.80;;;;;;;19.54;37.07;100633.78;1718950;82;26194;-76
2021/04/11 11:20:25;;;;;;;5.25;2.98;;;;;;;19.63;37.60;100629.61;1721021;82;26079;-75
2021/04/11 11:23:03;;;;;;;6.58;2.75;;;;;;;19.68;36.95;100626.95;1730283;81;27541;-76
2021/04/11 11:25:48;;;;;;;9.78;3.30;;;;;;;19.67;36.23;100622.61;1711307;82;26415;-75
2021/04/11 11:29:01;;;;;;;7.12;3.22;;;;;;;19.65;37.15;100624.19;1743709;81;25768;-77
2021/04/11 11:31:59;;;;;;;13.62;3.72;;;;;;;19.65;38.34;100620.11;1711152;82;25847;-77
2021/04/11 11:34:44;;;;;;;10.95;4.15;;;;;;;19.66;37.17;100620.42;1725428;81;26141;-76
2021/04/11 11:37:51;;;;;;;12.60;4.47;;;;;;;19.68;37.85;100626.43;1750084;81;27538;-76
2021/04/11 11:40:27;;;;;;;12.23;4.17;;;;;;;19.64;37.68;100626.63;1715544;81;25997;-76
2021/04/11 11:43:23;;;;;;;8.58;3.65;;;;;;;19.66;38.24;100619.06;1742917;81;25621;-78
2021/04/11 11:46:23;;;;;;;9.88;3.67;;;;;;;19.66;38.46;100611.43;1749829;81;26263;-79
2021/04/11 11:48:58;;;;;;;7.12;4.03;;;;;;;19.66;37.78;100604.11;1745012;81;25854;-75
2021/04/11 11:51:43;;;;;;;6.97;3.87;;;;;;;19.66;38.16;100611.43;1726189;81;28123;-76
2021/04/11 11:54:22;;;;;;;8.60;3.80;;;;;;;19.71;37.84;100616.97;1743096;81;26188;-76
2021/04/11 11:57:09;;;;;;;9.68;3.45;;;;;;;19.73;37.80;100612.94;1715975;81;25853;-76
2021/04/11 11:59:41;;;;;;;5.35;3.10;;;;;;;19.80;37.93;100608.70;1746125;81;25810;-77
2021/04/11 12:02:36;;;;;;;9.35;3.52;;;;;;;19.85;38.07;100604.69;1724250;81;25988;-77
2021/04/11 12:05:26;;;;;;;6.33;2.90;;;;;;;19.92;37.83;100612.98;1745628;81;27536;-76
2021/04/11 12:08:05;;;;;;;5.17;2.62;;;;;;;19.99;37.79;100597.86;1724270;81;25720;-76
2021/04/11 12:10:58;;;;;;;4.03;2.98;;;;;;;20.03;38.46;100599.54;1719868;81;26476;-77
2021/04/11 12:13:34;;;;;;;7.20;3.10;;;;;;;20.08;37.64;100592.27;1671380;81;26063;-76
2021/04/11 12:16:21;;;;;;;6.05;3.15;;;;;;;20.16;37.72;100592.41;1747387;81;25802;-75
2021/04/11 12:19:26;;;;;;;7.30;2.98;;;;;;;20.26;37.34;100590.69;1745599;81;28046;-75
2021/04/11 12:22:07;;;;;;;6.62;2.87;;;;;;;20.29;36.60;100576.59;1719529;82;25890;-75
2021/04/11 12:24:43;;;;;;;6.72;3.12;;;;;;;20.33;36.66;100576.37;1723962;81;25885;-73
2021/04/11 12:27:15;;;;;;;4.87;3.08;;;;;;;20.35;37.53;100574.22;1748343;81;26408;-77
2021/04/11 12:29:47;;;;;;;7.17;2.83;;;;;;;20.40;37.94;100574.27;1726980;81;26455;-76
2021/04/11 12:32:19;;;;;;;7.72;3.37;;;;;;;20.44;37.17;100570.53;1717885;81;26793;-77
2021/04/11 12:35:04;;;;;;;6.58;2.37;;;;;;;20.43;36.88;100567.52;1747001;81;25800;-76
2021/04/11 12:37:43;;;;;;;5.65;2.72;;;;;;;20.46;36.67;100564.30;1748081;81;25719;-74
2021/04/11 12:40:31;;;;;;;6.20;2.85;;;;;;;20.52;37.17;100568.20;1722250;81;25730;-75